Time;durP1;ratioP1;P1;durP2;ratioP2;P2;SDS_P1;SDS_P2;PMS_P1;PMS_P2;Temp;Humidity;BMP_temperature;BMP_pressure;BME280_temperature;BME280_humidity;BME280_pressure;Samples;Min_cycle;Max_cycle;Signal;HPM_P1;HPM_P2
2020/10/10 00:01:30;;;;;;;;;17.50;17.50;;;;;;;;3724653;37;21216;-52
2020/10/10 00:03:59;;;;;;;;;19.75;17.00;;;;;;;;3724715;37;21234;-52
2020/10/10 00:06:25;;;;;;;;;16.75;14.75;;;;;;;;3725284;38;21225;-52
2020/10/10 00:08:51;;;;;;;;;16.00;15.00;;;;;;;;3725188;38;21260;-52
2020/10/10 00:11:18;;;;;;;;;19.00;18.00;;;;;;;;3725438;37;21237;-51
2020/10/10 00:13:45;;;;;;;;;15.50;14.25;;;;;;;;3725310;37;18181;-53
2020/10/10 00:16:12;;;;;;;;;16.00;15.25;;;;;;;;3724908;37;21245;-54
2020/10/10 00:18:39;;;;;;;;;15.75;13.25;;;;;;;;3725197;38;21220;-53
2020/10/10 00:21:05;;;;;;;;;18.50;16.00;;;;;;;;3725225;37;21229;-53
2020/10/10 00:23:31;;;;;;;;;16.75;16.00;;;;;;;;3725215;38;18170;-53
2020/10/10 00:25:57;;;;;;;;;15.50;15.00;;;;;;;;3725103;37;21234;-53
2020/10/10 00:28:24;;;;;;;;;18.00;16.00;;;;;;;;3725250;38;21214;-53
2020/10/10 00:30:50;;;;;;;;;17.00;15.00;;;;;;;;3725229;38;21219;-53
2020/10/10 00:33:16;;;;;;;;;18.75;17.75;;;;;;;;3725202;37;21236;-53
2020/10/10 00:35:47;;;;;;;;;15.75;14.75;;;;;;;;3725247;37;21194;-53
2020/10/10 00:38:18;;;;;;;;;17.00;15.50;;;;;;;;3725306;38;21219;-54
2020/10/10 00:40:54;;;;;;;;;16.25;15.25;;;;;;;;3724945;37;21174;-54
2020/10/10 00:43:21;;;;;;;;;17.00;16.00;;;;;;;;3725330;37;21168;-54
2020/10/10 00:45:49;;;;;;;;;17.00;15.75;;;;;;;;3725277;37;21219;-54
2020/10/10 00:48:15;;;;;;;;;17.00;16.00;;;;;;;;3725330;37;21176;-54
2020/10/10 00:50:42;;;;;;;;;17.50;16.50;;;;;;;;3725375;37;21163;-54
2020/10/10 00:53:08;;;;;;;;;16.25;14.75;;;;;;;;3725247;38;21145;-54
2020/10/10 00:55:34;;;;;;;;;16.50;16.25;;;;;;;;3725341;37;21169;-54
2020/10/10 00:58:00;;;;;;;;;16.00;15.50;;;;;;;;3725347;38;18136;-54
2020/10/10 01:00:45;;;;;;;;;17.00;16.00;;;;;;;;3725343;38;21202;-56
2020/10/10 01:03:11;;;;;;;;;13.50;12.50;;;;;;;;3725468;37;21171;-54
2020/10/10 01:05:38;;;;;;;;;16.25;15.50;;;;;;;;3725479;37;21189;-55
2020/10/10 01:08:09;;;;;;;;;15.75;15.75;;;;;;;;3725373;37;21113;-57
2020/10/10 01:10:35;;;;;;;;;17.50;17.25;;;;;;;;3725200;38;21087;-56
2020/10/10 01:13:01;;;;;;;;;16.75;15.00;;;;;;;;3725503;37;21146;-55
2020/10/10 01:16:04;;;;;;;;;13.50;12.50;;;;;;;;3725329;38;18117;-57
2020/10/10 01:18:32;;;;;;;;;14.75;14.25;;;;;;;;3725287;38;18104;-55
2020/10/10 01:21:02;;;;;;;;;17.00;17.00;;;;;;;;3725190;38;21079;-55
2020/10/10 01:23:40;;;;;;;;;16.00;14.75;;;;;;;;3725140;37;21130;-55
2020/10/10 01:26:07;;;;;;;;;16.25;15.00;;;;;;;;3725318;38;21074;-55
2020/10/10 01:28:35;;;;;;;;;18.50;18.25;;;;;;;;3725284;38;21100;-55
2020/10/10 01:31:03;;;;;;;;;16.25;15.25;;;;;;;;3724902;38;21140;-55
2020/10/10 01:33:28;;;;;;;;;16.00;14.25;;;;;;;;3725208;37;21092;-56
2020/10/10 01:35:54;;;;;;;;;14.25;14.00;;;;;;;;3725214;38;21116;-56
2020/10/10 01:38:21;;;;;;;;;14.50;14.25;;;;;;;;3725352;37;18069;-55
2020/10/10 01:40:47;;;;;;;;;16.25;16.25;;;;;;;;3725223;38;21082;-54
2020/10/10 01:43:13;;;;;;;;;15.00;15.00;;;;;;;;3725294;37;18047;-56
2020/10/10 01:45:40;;;;;;;;;15.50;15.50;;;;;;;;3725198;37;18082;-56
2020/10/10 01:48:07;;;;;;;;;15.25;15.00;;;;;;;;3725285;37;21068;-55
2020/10/10 01:50:37;;;;;;;;;15.50;15.00;;;;;;;;3725109;37;21072;-55
2020/10/10 01:53:04;;;;;;;;;16.00;16.00;;;;;;;;3724851;38;18034;-55
2020/10/10 01:55:31;;;;;;;;;15.75;15.50;;;;;;;;3725086;38;21115;-55
2020/10/10 01:57:59;;;;;;;;;17.50;15.75;;;;;;;;3725049;38;21050;-56
2020/10/10 02:00:41;;;;;;;;;17.50;17.25;;;;;;;;3725103;37;21081;-56
2020/10/10 02:03:24;;;;;;;;;17.00;15.25;;;;;;;;3725134;38;21058;-56
2020/10/10 02:05:50;;;;;;;;;15.75;15.25;;;;;;;;3725222;37;21051;-57
2020/10/10 02:08:16;;;;;;;;;13.75;13.50;;;;;;;;3725164;37;21096;-56
2020/10/10 02:10:45;;;;;;;;;19.75;18.25;;;;;;;;3725270;38;18019;-55
2020/10/10 02:13:12;;;;;;;;;15.25;15.25;;;;;;;;3725261;37;18022;-55
2020/10/10 02:15:39;;;;;;;;;16.00;15.25;;;;;;;;3725492;37;21076;-55
2020/10/10 02:18:06;;;;;;;;;17.00;17.00;;;;;;;;3725246;37;21056;-56
2020/10/10 02:20:35;;;;;;;;;18.00;18.00;;;;;;;;3725144;37;21066;-55
2020/10/10 02:23:02;;;;;;;;;13.25;13.25;;;;;;;;3725196;37;21034;-55
2020/10/10 02:25:28;;;;;;;;;18.25;16.25;;;;;;;;3725432;37;21059;-53
2020/10/10 02:27:55;;;;;;;;;15.50;15.00;;;;;;;;3725434;37;21022;-56
2020/10/10 02:30:24;;;;;;;;;17.00;16.00;;;;;;;;3725222;38;21018;-55
2020/10/10 02:33:00;;;;;;;;;15.25;13.75;;;;;;;;3725328;38;18009;-55
2020/10/10 02:35:26;;;;;;;;;18.00;17.00;;;;;;;;3725389;37;21054;-55
2020/10/10 02:37:53;;;;;;;;;19.50;17.00;;;;;;;;3725326;38;21024;-56
2020/10/10 02:40:23;;;;;;;;;18.50;16.25;;;;;;;;3725307;38;21031;-55
2020/10/10 02:42:51;;;;;;;;;17.75;17.25;;;;;;;;3725328;37;21001;-56
2020/10/10 02:45:17;;;;;;;;;17.50;16.50;;;;;;;;3724949;37;21026;-56
2020/10/10 02:47:43;;;;;;;;;16.50;15.50;;;;;;;;3725320;38;20991;-55
2020/10/10 02:50:09;;;;;;;;;17.25;15.50;;;;;;;;3725089;38;20987;-55
2020/10/10 02:52:35;;;;;;;;;14.00;14.00;;;;;;;;3725174;38;17962;-55
2020/10/10 02:55:07;;;;;;;;;15.50;15.50;;;;;;;;3725331;38;20990;-56
2020/10/10 02:57:33;;;;;;;;;15.00;13.75;;;;;;;;3725189;38;21045;-55
2020/10/10 02:59:59;;;;;;;;;16.00;16.00;;;;;;;;3725285;37;21039;-55
2020/10/10 03:02:59;;;;;;;;;15.75;15.50;;;;;;;;3725215;38;20992;-54
2020/10/10 03:05:30;;;;;;;;;18.50;18.25;;;;;;;;3725153;37;17970;-54
2020/10/10 03:11:12;;;;;;;;;15.50;15.25;;;;;;;;3725576;38;20923;-54
2020/10/10 03:13:39;;;;;;;;;17.00;16.00;;;;;;;;3725250;37;20988;-54
2020/10/10 03:16:22;;;;;;;;;17.50;16.00;;;;;;;;3725391;38;20952;-55
2020/10/10 03:18:52;;;;;;;;;20.50;19.50;;;;;;;;3725227;38;20945;-55
2020/10/10 03:21:20;;;;;;;;;14.75;14.75;;;;;;;;3725361;38;21000;-54
2020/10/10 03:23:47;;;;;;;;;18.25;17.25;;;;;;;;3725369;37;17918;-56
2020/10/10 03:26:15;;;;;;;;;18.25;17.50;;;;;;;;3724970;37;20968;-56
2020/10/10 03:28:50;;;;;;;;;16.00;16.00;;;;;;;;3724952;38;20966;-52
2020/10/10 03:31:17;;;;;;;;;17.00;16.00;;;;;;;;3725264;38;20959;-51
2020/10/10 03:33:43;;;;;;;;;16.75;16.00;;;;;;;;3725430;37;20963;-55
2020/10/10 03:36:10;;;;;;;;;16.75;16.00;;;;;;;;3725863;38;20980;-53
2020/10/10 03:38:36;;;;;;;;;16.75;15.75;;;;;;;;3725667;37;20951;-53
2020/10/10 03:41:04;;;;;;;;;14.00;13.75;;;;;;;;3725986;37;20921;-56
2020/10/10 03:43:30;;;;;;;;;15.25;15.25;;;;;;;;3725774;37;20956;-51
2020/10/10 03:45:58;;;;;;;;;17.00;17.00;;;;;;;;3725376;37;20941;-54
2020/10/10 03:48:25;;;;;;;;;15.50;15.00;;;;;;;;3725529;37;20940;-53
2020/10/10 03:51:02;;;;;;;;;17.25;15.25;;;;;;;;3725371;38;20920;-53
2020/10/10 03:53:31;;;;;;;;;15.25;15.00;;;;;;;;3724938;38;20938;-53
2020/10/10 03:56:13;;;;;;;;;18.50;17.25;;;;;;;;3725535;37;20868;-53
2020/10/10 03:58:43;;;;;;;;;13.50;13.25;;;;;;;;3725329;37;20913;-50
2020/10/10 04:01:35;;;;;;;;;17.50;16.50;;;;;;;;3725365;37;20918;-53
2020/10/10 04:04:30;;;;;;;;;17.00;15.25;;;;;;;;3725297;37;20886;-53
2020/10/10 04:07:02;;;;;;;;;15.75;15.75;;;;;;;;3725378;37;20918;-53
2020/10/10 04:09:46;;;;;;;;;17.00;16.25;;;;;;;;3725186;38;20894;-53
2020/10/10 04:12:13;;;;;;;;;16.50;16.25;;;;;;;;3725285;37;20924;-53
2020/10/10 04:14:40;;;;;;;;;17.25;17.25;;;;;;;;3725278;38;20879;-54
2020/10/10 04:17:07;;;;;;;;;19.25;19.00;;;;;;;;3725276;37;20881;-53
2020/10/10 04:19:33;;;;;;;;;16.50;15.50;;;;;;;;3725120;37;21005;-53
2020/10/10 04:22:08;;;;;;;;;18.00;16.50;;;;;;;;3725144;37;20896;-53
2020/10/10 04:24:34;;;;;;;;;16.00;15.00;;;;;;;;3725412;37;20896;-53
2020/10/10 04:27:00;;;;;;;;;18.25;18.00;;;;;;;;3725290;37;20921;-52
2020/10/10 04:29:28;;;;;;;;;18.75;17.25;;;;;;;;3725326;37;20922;-53
2020/10/10 04:31:54;;;;;;;;;14.25;14.25;;;;;;;;3725337;37;17844;-54
2020/10/10 04:34:20;;;;;;;;;17.50;16.00;;;;;;;;3725235;37;20912;-53
2020/10/10 04:36:46;;;;;;;;;18.50;16.50;;;;;;;;3725326;37;17846;-54
2020/10/10 04:39:22;;;;;;;;;20.00;17.75;;;;;;;;3725336;38;17847;-53
2020/10/10 04:41:48;;;;;;;;;19.00;18.00;;;;;;;;3725149;37;20861;-53
2020/10/10 04:44:14;;;;;;;;;16.50;15.75;;;;;;;;3725139;37;20869;-54
2020/10/10 04:46:40;;;;;;;;;17.00;16.00;;;;;;;;3725074;37;20900;-53
2020/10/10 04:49:07;;;;;;;;;16.50;16.50;;;;;;;;3725385;37;17848;-53
2020/10/10 04:51:34;;;;;;;;;16.75;16.25;;;;;;;;3725300;38;20829;-53
2020/10/10 04:54:00;;;;;;;;;20.75;18.00;;;;;;;;3725244;38;17835;-53
2020/10/10 04:56:27;;;;;;;;;20.75;19.00;;;;;;;;3725320;38;20839;-53
2020/10/10 04:58:54;;;;;;;;;16.00;16.00;;;;;;;;3725237;37;20839;-53
2020/10/10 05:01:20;;;;;;;;;16.00;15.75;;;;;;;;3725413;38;17803;-55
2020/10/10 05:03:47;;;;;;;;;18.25;18.00;;;;;;;;3725251;37;20852;-53
2020/10/10 05:06:16;;;;;;;;;21.00;18.75;;;;;;;;3725350;38;20841;-54
2020/10/10 05:08:47;;;;;;;;;18.25;18.00;;;;;;;;3725272;37;20824;-54
2020/10/10 05:11:20;;;;;;;;;20.00;18.50;;;;;;;;3725385;37;20738;-53
2020/10/10 05:13:50;;;;;;;;;26.25;24.00;;;;;;;;3725207;37;20767;-53
2020/10/10 05:16:16;;;;;;;;;32.00;26.75;;;;;;;;3725378;38;20767;-53
2020/10/10 05:18:43;;;;;;;;;35.75;30.25;;;;;;;;3725360;37;20802;-53
2020/10/10 05:21:11;;;;;;;;;43.75;32.50;;;;;;;;3725202;38;20801;-53
2020/10/10 05:23:37;;;;;;;;;38.25;32.25;;;;;;;;3725205;37;20777;-54
2020/10/10 05:26:04;;;;;;;;;35.75;31.50;;;;;;;;3725301;37;20768;-53
2020/10/10 05:28:31;;;;;;;;;42.00;32.00;;;;;;;;3725251;37;20763;-53
2020/10/10 05:31:03;;;;;;;;;40.50;34.25;;;;;;;;3724927;37;20857;-53
2020/10/10 05:33:31;;;;;;;;;36.25;32.50;;;;;;;;3725219;38;20759;-56
2020/10/10 05:35:57;;;;;;;;;42.50;33.00;;;;;;;;3725154;37;20768;-55
2020/10/10 05:38:23;;;;;;;;;37.75;33.00;;;;;;;;3725185;37;20764;-53
2020/10/10 05:40:49;;;;;;;;;40.75;33.50;;;;;;;;3725188;38;20731;-53
2020/10/10 05:43:16;;;;;;;;;42.75;32.50;;;;;;;;3725205;38;20732;-53
2020/10/10 05:45:43;;;;;;;;;41.50;32.50;;;;;;;;3725294;38;20835;-53
2020/10/10 05:48:10;;;;;;;;;36.75;33.50;;;;;;;;3725347;37;20775;-55
2020/10/10 05:50:38;;;;;;;;;42.00;33.50;;;;;;;;3725238;38;20765;-54
2020/10/10 05:53:04;;;;;;;;;39.75;33.00;;;;;;;;3725132;38;20663;-54
2020/10/10 05:55:30;;;;;;;;;43.50;33.50;;;;;;;;3725336;37;20752;-55
2020/10/10 05:58:04;;;;;;;;;42.50;32.00;;;;;;;;3725344;37;20776;-54
2020/10/10 06:00:33;;;;;;;;;37.75;33.25;;;;;;;;3725433;37;17739;-53
2020/10/10 06:03:02;;;;;;;;;34.50;29.25;;;;;;;;3725238;37;20663;-55
2020/10/10 06:05:28;;;;;;;;;32.50;28.00;;;;;;;;3725322;37;20746;-54
2020/10/10 06:07:56;;;;;;;;;38.25;32.25;;;;;;;;3725283;37;20723;-55
2020/10/10 06:10:26;;;;;;;;;47.00;34.25;;;;;;;;3725289;37;20717;-55
2020/10/10 06:12:54;;;;;;;;;48.25;36.50;;;;;;;;3725234;37;20777;-54
2020/10/10 06:15:29;;;;;;;;;46.25;33.50;;;;;;;;3725342;37;20648;-55
2020/10/10 06:17:56;;;;;;;;;39.00;32.75;;;;;;;;3724923;37;20725;-55
2020/10/10 06:20:22;;;;;;;;;45.25;35.00;;;;;;;;3725254;37;20706;-55
2020/10/10 06:22:48;;;;;;;;;41.25;33.00;;;;;;;;3725280;37;20732;-55
2020/10/10 06:25:15;;;;;;;;;43.25;33.50;;;;;;;;3725301;38;20731;-54
2020/10/10 06:27:42;;;;;;;;;42.25;32.75;;;;;;;;3725387;37;20739;-54
2020/10/10 06:30:08;;;;;;;;;39.25;34.00;;;;;;;;3725029;38;17701;-52
2020/10/10 06:32:37;;;;;;;;;47.25;37.25;;;;;;;;3725329;37;20692;-53
2020/10/10 06:35:08;;;;;;;;;40.75;33.25;;;;;;;;3724356;38;20732;-52
2020/10/10 06:37:35;;;;;;;;;44.50;35.50;;;;;;;;3725512;37;17660;-54
2020/10/10 06:40:01;;;;;;;;;39.50;33.50;;;;;;;;3725134;37;20735;-52
2020/10/10 06:42:28;;;;;;;;;42.75;35.00;;;;;;;;3724981;37;20668;-53
2020/10/10 06:44:55;;;;;;;;;44.75;33.75;;;;;;;;3725141;37;20683;-53
2020/10/10 06:47:22;;;;;;;;;40.00;29.00;;;;;;;;3725274;37;20717;-58
2020/10/10 06:49:51;;;;;;;;;37.75;32.50;;;;;;;;3725181;37;20710;-54
2020/10/10 06:52:18;;;;;;;;;43.75;34.50;;;;;;;;3724749;37;20556;-53
2020/10/10 06:54:44;;;;;;;;;42.25;34.50;;;;;;;;3725177;37;20673;-53
2020/10/10 06:57:11;;;;;;;;;43.25;36.50;;;;;;;;3725216;38;20634;-52
2020/10/10 06:59:38;;;;;;;;;47.00;35.25;;;;;;;;3725493;37;20633;-53
2020/10/10 07:02:04;;;;;;;;;44.25;35.00;;;;;;;;3724861;38;17655;-53
2020/10/10 07:04:30;;;;;;;;;38.25;31.75;;;;;;;;3725319;37;20701;-53
2020/10/10 07:06:59;;;;;;;;;44.50;35.50;;;;;;;;3725239;38;21614;-52
2020/10/10 07:09:26;;;;;;;;;45.25;33.75;;;;;;;;3725247;38;20696;-54
2020/10/10 07:11:52;;;;;;;;;55.00;38.50;;;;;;;;3725194;38;21665;-56
2020/10/10 07:14:19;;;;;;;;;36.00;31.25;;;;;;;;3725290;37;21666;-55
2020/10/10 07:16:47;;;;;;;;;41.75;33.00;;;;;;;;3725319;37;18621;-61
2020/10/10 07:19:13;;;;;;;;;37.25;32.25;;;;;;;;3725146;37;20644;-60
2020/10/10 07:21:39;;;;;;;;;43.00;33.75;;;;;;;;3725219;38;21616;-60
2020/10/10 07:24:12;;;;;;;;;43.00;33.00;;;;;;;;3725165;37;21670;-61
2020/10/10 07:26:38;;;;;;;;;38.75;31.75;;;;;;;;3725285;38;21658;-57
2020/10/10 07:29:04;;;;;;;;;38.00;33.00;;;;;;;;3725097;37;21629;-59
2020/10/10 07:31:42;;;;;;;;;35.25;32.75;;;;;;;;3725268;37;21620;-62
2020/10/10 07:34:10;;;;;;;;;36.75;32.50;;;;;;;;3725305;37;18624;-62
2020/10/10 07:36:44;;;;;;;;;35.50;30.75;;;;;;;;3725274;37;21610;-59
2020/10/10 07:39:15;;;;;;;;;41.50;33.75;;;;;;;;3724818;37;21595;-59
2020/10/10 07:41:42;;;;;;;;;32.50;30.50;;;;;;;;3725250;38;21606;-59
2020/10/10 07:44:08;;;;;;;;;38.25;32.25;;;;;;;;3725163;37;21585;-61
2020/10/10 07:46:36;;;;;;;;;33.75;31.75;;;;;;;;3725270;37;21584;-60
2020/10/10 07:49:06;;;;;;;;;34.25;30.75;;;;;;;;3724919;37;21584;-57
2020/10/10 07:51:33;;;;;;;;;37.25;32.75;;;;;;;;3725286;38;21570;-59
2020/10/10 07:53:59;;;;;;;;;32.75;30.00;;;;;;;;3725333;38;21595;-57
2020/10/10 07:56:29;;;;;;;;;36.50;28.75;;;;;;;;3725172;38;21590;-58
2020/10/10 07:58:55;;;;;;;;;36.50;31.00;;;;;;;;3725295;38;18590;-58
2020/10/10 08:01:22;;;;;;;;;33.00;29.75;;;;;;;;3725179;37;21550;-60
2020/10/10 08:03:48;;;;;;;;;34.00;30.00;;;;;;;;3725155;37;21570;-59
2020/10/10 08:06:15;;;;;;;;;35.75;33.00;;;;;;;;3725254;37;21561;-59
2020/10/10 08:08:42;;;;;;;;;37.00;32.25;;;;;;;;3725167;38;21546;-59
2020/10/10 08:11:08;;;;;;;;;35.25;31.50;;;;;;;;3725354;38;18548;-59
2020/10/10 08:13:34;;;;;;;;;31.50;28.75;;;;;;;;3725268;38;21567;-61
2020/10/10 08:16:03;;;;;;;;;33.00;30.00;;;;;;;;3725233;37;21543;-58
2020/10/10 08:18:29;;;;;;;;;29.75;28.50;;;;;;;;3725231;37;21570;-60
2020/10/10 08:21:06;;;;;;;;;33.50;30.50;;;;;;;;3725111;37;21515;-59
2020/10/10 08:23:34;;;;;;;;;31.75;30.50;;;;;;;;3725164;38;21552;-58
2020/10/10 08:26:03;;;;;;;;;31.75;30.00;;;;;;;;3725012;38;21543;-59
2020/10/10 08:28:29;;;;;;;;;31.75;29.25;;;;;;;;3725185;37;21552;-59
2020/10/10 08:30:56;;;;;;;;;34.00;30.75;;;;;;;;3725165;38;21513;-59
2020/10/10 08:33:22;;;;;;;;;29.75;28.00;;;;;;;;3725261;37;21539;-59
2020/10/10 08:35:50;;;;;;;;;31.00;28.75;;;;;;;;3725221;38;21531;-60
2020/10/10 08:38:16;;;;;;;;;26.00;24.00;;;;;;;;3725271;38;21558;-59
2020/10/10 08:40:42;;;;;;;;;25.25;24.00;;;;;;;;3725372;37;21508;-59
2020/10/10 08:43:08;;;;;;;;;28.75;27.25;;;;;;;;3725405;37;18496;-60
2020/10/10 08:45:35;;;;;;;;;30.25;28.25;;;;;;;;3727507;38;21496;-61
2020/10/10 08:48:15;;;;;;;;;30.50;29.00;;;;;;;;3729408;38;18511;-59
2020/10/10 08:50:42;;;;;;;;;25.75;23.75;;;;;;;;3725044;37;21500;-58
2020/10/10 08:53:14;;;;;;;;;28.25;26.00;;;;;;;;3725249;38;21495;-59
2020/10/10 08:55:42;;;;;;;;;27.75;26.50;;;;;;;;3724930;37;21486;-62
2020/10/10 08:58:08;;;;;;;;;31.00;28.25;;;;;;;;3725217;37;21497;-59
2020/10/10 09:00:36;;;;;;;;;27.75;25.00;;;;;;;;3725148;37;21471;-59
2020/10/10 09:03:10;;;;;;;;;31.00;28.50;;;;;;;;3725177;37;21485;-58
2020/10/10 09:05:36;;;;;;;;;30.75;27.75;;;;;;;;3724999;37;21480;-60
2020/10/10 09:08:03;;;;;;;;;25.50;24.75;;;;;;;;3725314;38;21481;-59
2020/10/10 09:10:30;;;;;;;;;28.75;26.75;;;;;;;;3725380;38;21457;-59
2020/10/10 09:13:00;;;;;;;;;30.25;29.50;;;;;;;;3725140;37;21448;-59
2020/10/10 09:15:30;;;;;;;;;27.25;23.75;;;;;;;;3725455;38;21466;-61
2020/10/10 09:17:57;;;;;;;;;28.00;24.50;;;;;;;;3725447;37;21467;-59
2020/10/10 09:20:25;;;;;;;;;27.50;27.00;;;;;;;;3725233;37;21450;-59
2020/10/10 09:22:51;;;;;;;;;25.25;23.25;;;;;;;;3724700;37;21465;-59
2020/10/10 09:25:22;;;;;;;;;26.50;25.00;;;;;;;;3725302;37;21475;-59
2020/10/10 09:27:48;;;;;;;;;27.50;24.75;;;;;;;;3725177;38;21429;-56
2020/10/10 09:30:18;;;;;;;;;26.00;24.00;;;;;;;;3725230;38;21425;-55
2020/10/10 09:32:46;;;;;;;;;25.25;24.00;;;;;;;;3724829;37;21433;-61
2020/10/10 09:35:14;;;;;;;;;30.25;27.25;;;;;;;;3725297;37;21412;-60
2020/10/10 09:37:41;;;;;;;;;30.75;28.75;;;;;;;;3725069;37;21407;-63
2020/10/10 09:40:08;;;;;;;;;32.75;29.75;;;;;;;;3724795;37;21424;-59
2020/10/10 09:42:35;;;;;;;;;30.00;26.75;;;;;;;;3725300;37;21434;-60
2020/10/10 09:45:03;;;;;;;;;27.50;25.75;;;;;;;;3725324;37;21432;-62
2020/10/10 09:47:30;;;;;;;;;32.50;29.75;;;;;;;;3725247;37;21420;-59
2020/10/10 09:49:56;;;;;;;;;27.75;25.50;;;;;;;;3725215;37;21428;-61
2020/10/10 09:52:22;;;;;;;;;27.75;26.00;;;;;;;;3724642;38;21428;-62
2020/10/10 09:54:48;;;;;;;;;26.75;25.75;;;;;;;;3724793;37;18412;-56
2020/10/10 09:57:15;;;;;;;;;28.75;26.50;;;;;;;;3724976;37;21408;-62
2020/10/10 09:59:42;;;;;;;;;31.00;29.75;;;;;;;;3725269;38;18597;-64
2020/10/10 10:02:08;;;;;;;;;23.00;20.75;;;;;;;;3725377;38;21414;-62
2020/10/10 10:04:36;;;;;;;;;30.50;27.50;;;;;;;;3725129;37;21392;-61
2020/10/10 10:07:02;;;;;;;;;28.25;25.00;;;;;;;;3725187;37;21375;-61
2020/10/10 10:09:27;;;;;;;;;26.50;23.50;;;;;;;;3725162;38;21398;-60
2020/10/10 10:11:54;;;;;;;;;21.75;19.75;;;;;;;;3725242;37;18386;-62
2020/10/10 10:14:21;;;;;;;;;31.50;23.75;;;;;;;;3725234;37;18400;-61
2020/10/10 10:16:49;;;;;;;;;27.75;24.75;;;;;;;;3724852;37;21459;-63
2020/10/10 10:19:16;;;;;;;;;27.75;26.75;;;;;;;;3725058;38;21370;-59
2020/10/10 10:21:42;;;;;;;;;26.25;25.25;;;;;;;;3725282;38;21389;-60
2020/10/10 10:24:10;;;;;;;;;26.25;24.50;;;;;;;;3725349;38;18389;-62
2020/10/10 10:26:35;;;;;;;;;26.00;24.00;;;;;;;;3725285;38;21369;-61
2020/10/10 10:29:01;;;;;;;;;30.25;24.25;;;;;;;;3725114;37;21347;-60
2020/10/10 10:31:27;;;;;;;;;30.25;26.75;;;;;;;;3725224;38;18378;-62
2020/10/10 10:33:54;;;;;;;;;29.00;25.00;;;;;;;;3725215;38;18346;-61
2020/10/10 10:36:22;;;;;;;;;32.50;25.75;;;;;;;;3725327;37;18358;-59
2020/10/10 10:38:50;;;;;;;;;35.25;27.00;;;;;;;;3725343;38;21362;-60
2020/10/10 10:41:17;;;;;;;;;30.50;26.00;;;;;;;;3725061;37;21382;-62
2020/10/10 10:43:52;;;;;;;;;24.50;22.00;;;;;;;;3724841;37;21356;-63
2020/10/10 10:46:19;;;;;;;;;24.00;23.75;;;;;;;;3730253;37;21323;-61
2020/10/10 10:48:47;;;;;;;;;24.25;24.00;;;;;;;;3725118;37;21338;-56
2020/10/10 10:51:16;;;;;;;;;26.00;23.75;;;;;;;;3738369;37;21343;-60
2020/10/10 10:53:45;;;;;;;;;31.50;27.75;;;;;;;;3740842;38;21351;-63
2020/10/10 10:56:12;;;;;;;;;25.00;22.50;;;;;;;;3732493;37;21302;-60
2020/10/10 10:58:39;;;;;;;;;24.50;21.75;;;;;;;;3724331;37;21235;-60
2020/10/10 11:01:13;;;;;;;;;27.00;25.00;;;;;;;;3723923;38;21336;-59
2020/10/10 11:03:41;;;;;;;;;22.50;21.50;;;;;;;;3724029;38;21315;-59
2020/10/10 11:06:08;;;;;;;;;28.50;25.25;;;;;;;;3724700;38;21619;-59
2020/10/10 11:08:35;;;;;;;;;26.00;23.50;;;;;;;;3724932;37;21309;-62
2020/10/10 11:11:09;;;;;;;;;24.00;22.00;;;;;;;;3724941;38;21323;-59
2020/10/10 11:13:37;;;;;;;;;28.00;26.00;;;;;;;;3725225;37;21317;-58
2020/10/10 11:16:03;;;;;;;;;24.00;21.50;;;;;;;;3725046;37;21287;-63
2020/10/10 11:18:29;;;;;;;;;24.50;22.50;;;;;;;;3725012;37;21313;-58
2020/10/10 11:21:02;;;;;;;;;27.00;24.50;;;;;;;;3725261;37;18312;-57
2020/10/10 11:23:28;;;;;;;;;23.50;20.50;;;;;;;;3725415;37;18296;-65
2020/10/10 11:25:57;;;;;;;;;23.50;22.00;;;;;;;;3725286;37;21320;-61
2020/10/10 11:28:27;;;;;;;;;27.25;24.00;;;;;;;;3725236;37;21257;-61
2020/10/10 11:30:56;;;;;;;;;25.50;23.00;;;;;;;;3725125;37;21287;-66
2020/10/10 11:33:27;;;;;;;;;20.75;19.75;;;;;;;;3724538;38;21279;-60
2020/10/10 11:35:55;;;;;;;;;25.25;23.25;;;;;;;;3725420;37;21318;-61
2020/10/10 11:38:23;;;;;;;;;26.00;23.50;;;;;;;;3725331;37;21278;-55
2020/10/10 11:41:21;;;;;;;;;27.25;24.00;;;;;;;;3725295;37;21266;-58
2020/10/10 11:43:47;;;;;;;;;27.00;23.00;;;;;;;;3725152;38;21321;-58
2020/10/10 11:46:45;;;;;;;;;24.25;22.75;;;;;;;;3725359;37;21259;-58
2020/10/10 11:49:17;;;;;;;;;26.75;23.00;;;;;;;;3725253;37;21272;-58
2020/10/10 11:51:43;;;;;;;;;25.25;20.50;;;;;;;;3725423;37;21270;-58
2020/10/10 11:54:18;;;;;;;;;25.00;22.25;;;;;;;;3725478;38;21233;-60
2020/10/10 11:57:12;;;;;;;;;26.50;23.00;;;;;;;;3724934;38;18237;-61
2020/10/10 11:59:39;;;;;;;;;21.75;19.50;;;;;;;;3725523;38;21252;-60
2020/10/10 12:02:05;;;;;;;;;22.25;20.25;;;;;;;;3725303;38;21221;-61
2020/10/10 12:04:32;;;;;;;;;28.50;24.00;;;;;;;;3725214;37;21227;-60
2020/10/10 12:06:59;;;;;;;;;25.25;23.75;;;;;;;;3725152;38;21236;-57
2020/10/10 12:09:33;;;;;;;;;26.75;22.50;;;;;;;;3725222;38;18256;-58
2020/10/10 12:11:59;;;;;;;;;24.25;21.50;;;;;;;;3724783;37;21243;-56
2020/10/10 12:14:28;;;;;;;;;25.75;22.50;;;;;;;;3725226;38;21257;-59
2020/10/10 12:16:54;;;;;;;;;27.75;21.75;;;;;;;;3725333;37;21230;-71
2020/10/10 12:19:20;;;;;;;;;24.00;22.25;;;;;;;;3725351;37;18223;-59
2020/10/10 12:21:46;;;;;;;;;19.50;17.50;;;;;;;;3725489;37;18212;-58
2020/10/10 12:24:12;;;;;;;;;31.50;26.25;;;;;;;;3725363;38;21152;-60
2020/10/10 12:26:39;;;;;;;;;30.00;28.00;;;;;;;;3725473;37;18225;-59
2020/10/10 12:29:06;;;;;;;;;24.75;23.75;;;;;;;;3725156;37;18218;-59
2020/10/10 12:31:32;;;;;;;;;29.25;25.00;;;;;;;;3725333;37;21196;-58
2020/10/10 12:33:59;;;;;;;;;27.25;24.25;;;;;;;;3725207;38;18220;-59
2020/10/10 12:36:25;;;;;;;;;27.25;23.25;;;;;;;;3725380;38;18218;-59
2020/10/10 12:38:51;;;;;;;;;26.75;25.00;;;;;;;;3725330;37;21180;-59
2020/10/10 12:41:18;;;;;;;;;34.25;27.25;;;;;;;;3725025;38;21216;-61
2020/10/10 12:43:46;;;;;;;;;21.00;21.00;;;;;;;;3725207;38;18199;-60
2020/10/10 12:46:13;;;;;;;;;29.25;26.25;;;;;;;;3725260;37;21190;-59
2020/10/10 12:48:38;;;;;;;;;28.00;24.75;;;;;;;;3725253;37;21179;-60
2020/10/10 12:51:05;;;;;;;;;29.25;24.50;;;;;;;;3725322;38;18191;-60
2020/10/10 12:53:40;;;;;;;;;28.25;26.25;;;;;;;;3725355;37;18166;-59
2020/10/10 12:56:07;;;;;;;;;26.75;25.00;;;;;;;;3725356;37;21168;-59
2020/10/10 12:58:36;;;;;;;;;26.00;25.00;;;;;;;;3725379;38;21154;-61
2020/10/10 13:01:09;;;;;;;;;29.50;25.00;;;;;;;;3725319;37;21106;-61
2020/10/10 13:03:36;;;;;;;;;23.00;22.75;;;;;;;;3725366;38;21175;-57
2020/10/10 13:06:05;;;;;;;;;23.00;21.75;;;;;;;;3725371;37;21143;-59
2020/10/10 13:08:31;;;;;;;;;20.00;20.00;;;;;;;;3726148;37;21138;-58
2020/10/10 13:10:58;;;;;;;;;24.25;23.50;;;;;;;;3727897;37;21144;-56
2020/10/10 13:13:26;;;;;;;;;21.00;20.00;;;;;;;;3725082;37;21169;-59
2020/10/10 13:15:56;;;;;;;;;32.25;26.00;;;;;;;;3725398;37;21166;-59
2020/10/10 13:18:22;;;;;;;;;30.25;28.25;;;;;;;;3725255;38;21160;-58
2020/10/10 13:20:48;;;;;;;;;31.75;27.50;;;;;;;;3725340;37;21137;-60
2020/10/10 13:23:15;;;;;;;;;32.00;27.50;;;;;;;;3725511;37;18150;-57
2020/10/10 13:25:42;;;;;;;;;32.25;28.25;;;;;;;;3725711;37;18145;-57
2020/10/10 13:28:16;;;;;;;;;31.00;29.75;;;;;;;;3725322;37;21133;-57
2020/10/10 13:30:42;;;;;;;;;35.50;30.75;;;;;;;;3725297;38;21121;-58
2020/10/10 13:33:09;;;;;;;;;30.25;29.25;;;;;;;;3725299;38;21112;-58
2020/10/10 13:35:36;;;;;;;;;32.00;29.75;;;;;;;;3724782;37;21108;-58
2020/10/10 13:38:02;;;;;;;;;33.00;30.50;;;;;;;;3724711;38;21132;-57
2020/10/10 13:40:28;;;;;;;;;30.50;28.25;;;;;;;;3724139;37;21132;-60
2020/10/10 13:42:57;;;;;;;;;31.75;28.50;;;;;;;;3724245;37;21133;-58
2020/10/10 13:45:23;;;;;;;;;31.50;29.50;;;;;;;;3724383;38;18122;-59
2020/10/10 13:47:49;;;;;;;;;35.25;28.75;;;;;;;;3724665;38;21123;-61
2020/10/10 13:50:17;;;;;;;;;29.25;27.50;;;;;;;;3724492;37;21104;-56
2020/10/10 13:52:44;;;;;;;;;29.50;28.25;;;;;;;;3724830;37;21110;-56
2020/10/10 13:55:10;;;;;;;;;29.75;28.00;;;;;;;;3725151;37;21086;-58
2020/10/10 13:57:39;;;;;;;;;27.75;26.50;;;;;;;;3725123;37;20684;-59
2020/10/10 14:00:24;;;;;;;;;27.00;23.50;;;;;;;;3725031;37;21081;-56
2020/10/10 14:02:50;;;;;;;;;28.00;25.00;;;;;;;;3725260;37;21079;-57
2020/10/10 14:05:16;;;;;;;;;31.00;27.75;;;;;;;;3725346;38;21054;-59
2020/10/10 14:07:42;;;;;;;;;29.25;25.75;;;;;;;;3725430;38;18098;-58
2020/10/10 14:10:08;;;;;;;;;26.25;24.50;;;;;;;;3724674;38;21085;-59
2020/10/10 14:12:36;;;;;;;;;45.50;38.25;;;;;;;;3724138;37;18065;-63
2020/10/10 14:15:02;;;;;;;;;40.25;35.25;;;;;;;;3724546;37;21121;-61
2020/10/10 14:17:28;;;;;;;;;44.00;34.25;;;;;;;;3724877;37;21066;-57
2020/10/10 14:19:54;;;;;;;;;45.25;38.00;;;;;;;;3725173;38;18076;-58
2020/10/10 14:22:22;;;;;;;;;29.75;21.25;;;;;;;;3725217;38;18078;-57
2020/10/10 14:24:48;;;;;;;;;43.75;35.50;;;;;;;;3725824;38;21097;-56
2020/10/10 14:27:15;;;;;;;;;45.50;36.50;;;;;;;;3727795;37;21131;-60